Time;durP1;ratioP1;P1;durP2;ratioP2;P2;SDS_P1;SDS_P2;PMS_P1;PMS_P2;Temp;Humidity;BMP_temperature;BMP_pressure;BME280_temperature;BME280_humidity;BME280_pressure;Samples;Min_cycle;Max_cycle;Signal;HPM_P1;HPM_P2
2022/06/22 00:00:29;;;;;;;;;;;;;;;;;;5093275;28;19959;-68
2022/06/22 00:02:55;;;;;;;;;;;;;;;;;;5092520;28;19933;-68
2022/06/22 00:05:21;;;;;;;;;;;;;;;;;;5093117;28;19982;-68
2022/06/22 00:07:47;;;;;;;;;;;;;;;;;;5093191;28;19928;-68
2022/06/22 00:10:13;;;;;;;;;;;;;;;;;;5092055;28;19924;-68
2022/06/22 00:12:39;;;;;;;;;;;;;;;;;;5093064;28;19927;-69
2022/06/22 00:15:05;;;;;;;;;;;;;;;;;;5092818;28;19927;-68
2022/06/22 00:17:31;;;;;;;;;;;;;;;;;;5092678;28;19943;-68
2022/06/22 00:19:57;;;;;;;;;;;;;;;;;;5092854;28;19920;-68
2022/06/22 00:22:24;;;;;;;;;;;;;;;;;;5092620;28;19989;-68
2022/06/22 00:24:50;;;;;;;;;;;;;;;;;;5092603;28;20003;-68
2022/06/22 00:27:16;;;;;;;;;;;;;;;;;;5074254;28;20378;-68
2022/06/22 00:29:42;;;;;;;;;;;;;;;;;;5072400;28;19924;-68
2022/06/22 00:32:08;;;;;;;;;;;;;;;;;;5072295;28;20043;-68
2022/06/22 00:34:34;;;;;;;;;;;;;;;;;;5071858;28;20007;-68
2022/06/22 00:37:00;;;;;;;;;;;;;;;;;;5072463;28;19928;-68
2022/06/22 00:39:26;;;;;;;;;;;;;;;;;;5072350;28;20270;-68
2022/06/22 00:41:52;;;;;;;;;;;;;;;;;;5071582;28;20009;-68
2022/06/22 00:44:19;;;;;;;;;;;;;;;;;;5072136;28;19925;-68
2022/06/22 00:46:44;;;;;;;;;;;;;;;;;;5072421;28;20286;-68
2022/06/22 00:49:10;;;;;;;;;;;;;;;;;;5071564;28;19920;-68
2022/06/22 00:51:36;;;;;;;;;;;;;;;;;;5072078;28;19928;-68
2022/06/22 00:54:02;;;;;;;;;;;;;;;;;;5072187;28;19924;-68
2022/06/22 00:56:28;;;;;;;;;;;;;;;;;;5071572;28;20350;-68
2022/06/22 00:58:55;;;;;;;;;;;;;;;;;;5072209;28;19920;-68
2022/06/22 01:01:21;;;;;;;;;;;;;;;;;;5072096;28;20007;-68
2022/06/22 01:03:48;;;;;;;;;;;;;;;;;;5071663;28;20324;-68
2022/06/22 01:06:14;;;;;;;;;;;;;;;;;;5072217;28;19927;-68
2022/06/22 01:08:40;;;;;;;;;;;;;;;;;;5072291;28;19920;-68
2022/06/22 01:11:06;;;;;;;;;;;;;;;;;;5071244;28;19978;-68
2022/06/22 01:13:32;;;;;;;;;;;;;;;;;;5071930;28;20275;-68
2022/06/22 01:15:58;;;;;;;;;;;;;;;;;;5072208;28;19920;-68
2022/06/22 01:18:24;;;;;;;;;;;;;;;;;;5071361;28;19944;-68
2022/06/22 01:20:50;;;;;;;;;;;;;;;;;;5071915;28;19920;-68
2022/06/22 01:23:16;;;;;;;;;;;;;;;;;;5071969;28;20415;-68
2022/06/22 01:25:42;;;;;;;;;;;;;;;;;;5075742;28;19934;-68
2022/06/22 01:28:08;;;;;;;;;;;;;;;;;;5092198;28;20010;-68
2022/06/22 01:30:35;;;;;;;;;;;;;;;;;;5091791;28;19924;-68
2022/06/22 01:33:01;;;;;;;;;;;;;;;;;;5091427;28;20385;-68
2022/06/22 01:35:27;;;;;;;;;;;;;;;;;;5092299;28;19920;-68
2022/06/22 01:37:53;;;;;;;;;;;;;;;;;;5092267;28;19920;-68
2022/06/22 01:40:19;;;;;;;;;;;;;;;;;;5090083;28;19920;-68
2022/06/22 01:42:45;;;;;;;;;;;;;;;;;;5095730;28;19924;-68
2022/06/22 01:45:11;;;;;;;;;;;;;;;;;;5096091;28;19970;-68
2022/06/22 01:47:37;;;;;;;;;;;;;;;;;;5095476;28;20370;-68
2022/06/22 01:50:03;;;;;;;;;;;;;;;;;;5095806;28;20019;-68
2022/06/22 01:52:29;;;;;;;;;;;;;;;;;;5096110;28;19920;-68
2022/06/22 01:54:55;;;;;;;;;;;;;;;;;;5095051;28;19920;-68
2022/06/22 01:57:21;;;;;;;;;;;;;;;;;;5095807;28;19927;-68
2022/06/22 01:59:47;;;;;;;;;;;;;;;;;;5095724;28;19924;-68
2022/06/22 02:02:13;;;;;;;;;;;;;;;;;;5094677;28;19931;-68
2022/06/22 02:04:39;;;;;;;;;;;;;;;;;;5095625;28;19920;-68
2022/06/22 02:09:50;;;;;;;;;;;;;;;;;;5094470;28;20320;-68
2022/06/22 02:12:20;;;;;;;;;;;;;;;;;;5095443;28;19981;-68
2022/06/22 02:14:46;;;;;;;;;;;;;;;;;;5095251;28;19920;-68
2022/06/22 02:17:12;;;;;;;;;;;;;;;;;;5094802;28;20704;-68
2022/06/22 02:19:38;;;;;;;;;;;;;;;;;;5095320;28;19963;-68
2022/06/22 02:22:04;;;;;;;;;;;;;;;;;;5095123;28;19947;-68
2022/06/22 02:24:30;;;;;;;;;;;;;;;;;;5094137;28;19920;-68
2022/06/22 02:26:56;;;;;;;;;;;;;;;;;;5079807;28;19920;-68
2022/06/22 02:29:22;;;;;;;;;;;;;;;;;;5074436;28;19928;-68
2022/06/22 02:31:48;;;;;;;;;;;;;;;;;;5073936;28;19964;-68
2022/06/22 02:34:14;;;;;;;;;;;;;;;;;;5074899;28;20002;-68
2022/06/22 02:36:40;;;;;;;;;;;;;;;;;;5074609;28;19924;-68
2022/06/22 02:39:05;;;;;;;;;;;;;;;;;;5074045;28;20015;-68
2022/06/22 02:44:34;;;;;;;;;;;;;;;;;;5074095;28;20390;-68
2022/06/22 02:47:00;;;;;;;;;;;;;;;;;;5074079;28;19921;-68
2022/06/22 02:49:26;;;;;;;;;;;;;;;;;;5074337;28;19991;-68
2022/06/22 02:51:52;;;;;;;;;;;;;;;;;;5073961;28;20025;-68
2022/06/22 02:54:18;;;;;;;;;;;;;;;;;;5072843;28;19943;-68
2022/06/22 02:56:44;;;;;;;;;;;;;;;;;;5074299;28;20275;-68
2022/06/22 02:59:10;;;;;;;;;;;;;;;;;;5074488;28;20010;-68
2022/06/22 03:01:36;;;;;;;;;;;;;;;;;;5073554;28;19925;-68
2022/06/22 03:04:02;;;;;;;;;;;;;;;;;;5074305;28;20579;-68
2022/06/22 03:06:28;;;;;;;;;;;;;;;;;;5074014;28;20009;-68
2022/06/22 03:08:54;;;;;;;;;;;;;;;;;;5073456;28;20387;-68
2022/06/22 03:11:20;;;;;;;;;;;;;;;;;;5073765;28;19924;-68
2022/06/22 03:13:46;;;;;;;;;;;;;;;;;;5072643;28;19942;-68
2022/06/22 03:16:12;;;;;;;;;;;;;;;;;;5071846;28;19968;-68
2022/06/22 03:18:38;;;;;;;;;;;;;;;;;;5074019;28;19943;-68
2022/06/22 03:21:04;;;;;;;;;;;;;;;;;;5073873;28;19920;-68
2022/06/22 03:23:30;;;;;;;;;;;;;;;;;;5073280;28;19975;-68
2022/06/22 03:25:56;;;;;;;;;;;;;;;;;;5080299;28;19920;-68
2022/06/22 03:28:21;;;;;;;;;;;;;;;;;;5094010;28;19920;-68
2022/06/22 03:30:47;;;;;;;;;;;;;;;;;;5093049;28;20022;-68
2022/06/22 03:33:13;;;;;;;;;;;;;;;;;;5093930;28;20377;-68
2022/06/22 03:35:39;;;;;;;;;;;;;;;;;;5093831;28;19920;-68
2022/06/22 03:38:05;;;;;;;;;;;;;;;;;;5093064;28;19919;-68
2022/06/22 03:40:31;;;;;;;;;;;;;;;;;;5093678;28;19943;-68
2022/06/22 03:42:57;;;;;;;;;;;;;;;;;;5093466;28;19924;-68
2022/06/22 03:45:23;;;;;;;;;;;;;;;;;;5092554;28;20308;-68
2022/06/22 03:47:49;;;;;;;;;;;;;;;;;;5093656;28;19927;-68
2022/06/22 03:50:15;;;;;;;;;;;;;;;;;;5093309;28;19959;-68
2022/06/22 03:52:41;;;;;;;;;;;;;;;;;;5091258;28;19924;-68
2022/06/22 03:55:07;;;;;;;;;;;;;;;;;;5093560;28;19920;-68
2022/06/22 03:57:33;;;;;;;;;;;;;;;;;;5093267;28;19923;-67
2022/06/22 03:59:59;;;;;;;;;;;;;;;;;;5092650;28;19924;-67
2022/06/22 04:02:25;;;;;;;;;;;;;;;;;;5093397;28;20369;-67
2022/06/22 04:04:51;;;;;;;;;;;;;;;;;;5093012;28;19942;-68
2022/06/22 04:07:17;;;;;;;;;;;;;;;;;;5091149;28;19924;-68
2022/06/22 04:09:43;;;;;;;;;;;;;;;;;;5092724;28;19920;-68
2022/06/22 04:12:09;;;;;;;;;;;;;;;;;;5093059;28;19934;-68
2022/06/22 04:14:35;;;;;;;;;;;;;;;;;;5092388;28;20316;-68
2022/06/22 04:17:01;;;;;;;;;;;;;;;;;;5093029;28;19960;-68
2022/06/22 04:19:27;;;;;;;;;;;;;;;;;;5092859;28;19920;-68
2022/06/22 04:21:53;;;;;;;;;;;;;;;;;;5092034;28;19920;-68
2022/06/22 04:24:19;;;;;;;;;;;;;;;;;;5092978;28;19920;-68
2022/06/22 04:26:45;;;;;;;;;;;;;;;;;;5079332;28;19969;-67
2022/06/22 04:29:11;;;;;;;;;;;;;;;;;;5072019;28;19942;-67
2022/06/22 04:31:37;;;;;;;;;;;;;;;;;;5072064;28;19925;-67
2022/06/22 04:34:03;;;;;;;;;;;;;;;;;;5072412;28;20286;-67
2022/06/22 04:36:28;;;;;;;;;;;;;;;;;;5072346;28;19920;-68
2022/06/22 04:38:54;;;;;;;;;;;;;;;;;;5071908;28;19921;-68
2022/06/22 04:41:20;;;;;;;;;;;;;;;;;;5071883;28;19971;-68
2022/06/22 04:43:49;;;;;;;;;;;;;;;;;;5071903;28;20003;-68
2022/06/22 04:46:15;;;;;;;;;;;;;;;;;;5071562;28;19977;-68
2022/06/22 04:48:41;;;;;;;;;;;;;;;;;;5072250;28;19928;-68
2022/06/22 04:51:07;;;;;;;;;;;;;;;;;;5071918;28;19946;-68
2022/06/22 04:53:33;;;;;;;;;;;;;;;;;;5071487;28;19924;-68
2022/06/22 04:56:00;;;;;;;;;;;;;;;;;;5072108;28;20287;-68
2022/06/22 04:58:26;;;;;;;;;;;;;;;;;;5072157;28;20279;-68
2022/06/22 05:00:52;;;;;;;;;;;;;;;;;;5071059;28;19928;-68
2022/06/22 05:03:18;;;;;;;;;;;;;;;;;;5070742;28;19927;-68
2022/06/22 05:05:44;;;;;;;;;;;;;;;;;;5071929;28;19951;-68
2022/06/22 05:08:10;;;;;;;;;;;;;;;;;;5071399;28;20011;-68
2022/06/22 05:10:36;;;;;;;;;;;;;;;;;;5073688;28;20367;-67
2022/06/22 05:13:02;;;;;;;;;;;;;;;;;;5090991;28;19928;-67
2022/06/22 05:15:28;;;;;;;;;;;;;;;;;;5090633;28;19927;-67
2022/06/22 05:17:54;;;;;;;;;;;;;;;;;;5091837;28;20020;-67
2022/06/22 05:20:20;;;;;;;;;;;;;;;;;;5091532;28;19924;-67
2022/06/22 05:22:46;;;;;;;;;;;;;;;;;;5091172;28;19920;-67
2022/06/22 05:25:12;;;;;;;;;;;;;;;;;;5091502;28;19928;-67
2022/06/22 05:27:38;;;;;;;;;;;;;;;;;;5091902;28;20370;-67
2022/06/22 05:30:05;;;;;;;;;;;;;;;;;;5090854;28;19963;-67
2022/06/22 05:32:31;;;;;;;;;;;;;;;;;;5091466;28;19924;-67
2022/06/22 05:34:57;;;;;;;;;;;;;;;;;;5091509;28;19927;-67
2022/06/22 05:37:23;;;;;;;;;;;;;;;;;;5090948;28;19970;-67
2022/06/22 05:39:49;;;;;;;;;;;;;;;;;;5091484;28;20386;-68
2022/06/22 05:42:15;;;;;;;;;;;;;;;;;;5091353;28;19963;-68
2022/06/22 05:44:41;;;;;;;;;;;;;;;;;;5090928;28;20003;-68
2022/06/22 05:47:07;;;;;;;;;;;;;;;;;;5091904;28;19965;-68
2022/06/22 05:49:33;;;;;;;;;;;;;;;;;;5091346;28;19920;-68
2022/06/22 05:51:59;;;;;;;;;;;;;;;;;;5090701;28;19924;-68
2022/06/22 05:54:26;;;;;;;;;;;;;;;;;;5091606;28;20010;-68
2022/06/22 05:56:52;;;;;;;;;;;;;;;;;;5091581;28;20010;-68
2022/06/22 05:59:19;;;;;;;;;;;;;;;;;;5090786;28;19927;-68
2022/06/22 06:01:44;;;;;;;;;;;;;;;;;;5091110;28;19920;-68
2022/06/22 06:04:10;;;;;;;;;;;;;;;;;;5091589;28;19945;-68
2022/06/22 06:06:37;;;;;;;;;;;;;;;;;;5089337;28;19921;-68
2022/06/22 06:09:03;;;;;;;;;;;;;;;;;;5091134;28;20019;-68
2022/06/22 06:11:28;;;;;;;;;;;;;;;;;;5090965;28;20011;-68
2022/06/22 06:13:58;;;;;;;;;;;;;;;;;;5087945;28;20034;-68
2022/06/22 06:16:27;;;;;;;;;;;;;;;;;;5078660;28;20337;-68
2022/06/22 06:18:53;;;;;;;;;;;;;;;;;;5090045;28;20014;-68
2022/06/22 06:21:19;;;;;;;;;;;;;;;;;;5089867;28;20007;-68
2022/06/22 06:23:45;;;;;;;;;;;;;;;;;;5090223;28;20003;-68
2022/06/22 06:28:56;;;;;;;;;;;;;;;;;;5093774;28;20500;-68
2022/06/22 06:31:22;;;;;;;;;;;;;;;;;;5077518;28;19951;-67
2022/06/22 06:33:48;;;;;;;;;;;;;;;;;;5087944;28;20028;-67
2022/06/22 06:36:14;;;;;;;;;;;;;;;;;;5079368;28;20467;-67
2022/06/22 06:38:40;;;;;;;;;;;;;;;;;;5088151;28;19920;-67
2022/06/22 06:41:06;;;;;;;;;;;;;;;;;;5100609;28;19920;-67
2022/06/22 06:43:32;;;;;;;;;;;;;;;;;;5083922;28;20010;-67
2022/06/22 06:45:58;;;;;;;;;;;;;;;;;;5091874;28;19963;-67
2022/06/22 06:48:24;;;;;;;;;;;;;;;;;;5080307;28;20302;-67
2022/06/22 06:50:50;;;;;;;;;;;;;;;;;;5097859;28;19923;-67
2022/06/22 06:53:16;;;;;;;;;;;;;;;;;;5090003;28;19920;-67
2022/06/22 06:55:42;;;;;;;;;;;;;;;;;;5084406;28;19973;-68
2022/06/22 06:58:08;;;;;;;;;;;;;;;;;;5087829;28;19943;-68
2022/06/22 07:00:34;;;;;;;;;;;;;;;;;;5105941;28;19938;-68
2022/06/22 07:03:00;;;;;;;;;;;;;;;;;;5082499;28;19942;-68
2022/06/22 07:05:26;;;;;;;;;;;;;;;;;;5086810;28;19931;-69
2022/06/22 07:07:51;;;;;;;;;;;;;;;;;;5082210;28;20026;-68
2022/06/22 07:10:20;;;;;;;;;;;;;;;;;;5086244;28;20019;-68
2022/06/22 07:12:46;;;;;;;;;;;;;;;;;;5100372;28;19930;-69
2022/06/22 07:15:12;;;;;;;;;;;;;;;;;;5083282;28;20362;-68
2022/06/22 07:17:38;;;;;;;;;;;;;;;;;;5092221;28;19920;-68
2022/06/22 07:20:05;;;;;;;;;;;;;;;;;;5089122;28;19981;-68
2022/06/22 07:22:31;;;;;;;;;;;;;;;;;;5091300;28;20374;-68
2022/06/22 07:24:57;;;;;;;;;;;;;;;;;;5089022;28;19966;-68
2022/06/22 07:27:23;;;;;;;;;;;;;;;;;;5090882;28;20157;-67
2022/06/22 07:29:49;;;;;;;;;;;;;;;;;;5089819;28;19927;-68
2022/06/22 07:32:15;;;;;;;;;;;;;;;;;;5083987;28;19924;-69
2022/06/22 07:34:41;;;;;;;;;;;;;;;;;;5087134;28;19928;-69
2022/06/22 07:37:07;;;;;;;;;;;;;;;;;;5094070;28;20303;-68
2022/06/22 07:39:33;;;;;;;;;;;;;;;;;;5085318;28;19928;-68
2022/06/22 07:41:59;;;;;;;;;;;;;;;;;;5082662;28;19959;-68
2022/06/22 07:44:25;;;;;;;;;;;;;;;;;;5085024;28;19924;-68
2022/06/22 07:46:51;;;;;;;;;;;;;;;;;;5093055;28;19927;-68
2022/06/22 07:49:17;;;;;;;;;;;;;;;;;;5089509;28;19935;-69
2022/06/22 07:51:43;;;;;;;;;;;;;;;;;;5094107;28;19932;-68
2022/06/22 07:54:10;;;;;;;;;;;;;;;;;;5088260;28;22428;-69
2022/06/22 07:56:36;;;;;;;;;;;;;;;;;;5093304;28;19924;-68
2022/06/22 07:59:03;;;;;;;;;;;;;;;;;;5091224;28;19927;-68
2022/06/22 08:01:29;;;;;;;;;;;;;;;;;;5081489;28;19981;-68
2022/06/22 08:03:55;;;;;;;;;;;;;;;;;;5083318;28;19931;-68
2022/06/22 08:06:21;;;;;;;;;;;;;;;;;;5086907;28;19920;-68
2022/06/22 08:08:47;;;;;;;;;;;;;;;;;;5077130;28;20513;-68
2022/06/22 08:11:13;;;;;;;;;;;;;;;;;;5087357;28;19927;-67
2022/06/22 08:13:39;;;;;;;;;;;;;;;;;;5092735;28;20289;-67
2022/06/22 08:16:06;;;;;;;;;;;;;;;;;;5086928;28;19944;-68
2022/06/22 08:18:32;;;;;;;;;;;;;;;;;;5090241;28;20731;-68
2022/06/22 08:20:58;;;;;;;;;;;;;;;;;;5086832;28;19927;-68
2022/06/22 08:23:24;;;;;;;;;;;;;;;;;;5079301;28;19920;-68
2022/06/22 08:25:50;;;;;;;;;;;;;;;;;;5077009;28;20000;-68
2022/06/22 08:28:16;;;;;;;;;;;;;;;;;;5083773;28;19920;-69
2022/06/22 08:30:42;;;;;;;;;;;;;;;;;;5088667;28;20057;-69
2022/06/22 08:33:07;;;;;;;;;;;;;;;;;;5083972;28;19928;-68
2022/06/22 08:35:33;;;;;;;;;;;;;;;;;;5089598;28;20068;-69
2022/06/22 08:37:59;;;;;;;;;;;;;;;;;;5065035;28;19920;-68
2022/06/22 08:40:25;;;;;;;;;;;;;;;;;;5079386;28;19920;-68
2022/06/22 08:42:51;;;;;;;;;;;;;;;;;;5090749;28;20381;-68
2022/06/22 08:45:17;;;;;;;;;;;;;;;;;;5080954;28;19928;-68
2022/06/22 08:47:43;;;;;;;;;;;;;;;;;;5093717;28;20363;-68
2022/06/22 08:50:09;;;;;;;;;;;;;;;;;;5091851;28;20031;-68
2022/06/22 08:52:35;;;;;;;;;;;;;;;;;;5085885;28;19920;-67
2022/06/22 08:55:01;;;;;;;;;;;;;;;;;;5086672;28;19947;-68
2022/06/22 08:57:27;;;;;;;;;;;;;;;;;;5087219;28;20286;-68
2022/06/22 08:59:53;;;;;;;;;;;;;;;;;;5088398;28;19970;-68
2022/06/22 09:02:19;;;;;;;;;;;;;;;;;;5083510;28;20631;-68
2022/06/22 09:04:45;;;;;;;;;;;;;;;;;;5092881;28;19920;-68
2022/06/22 09:07:11;;;;;;;;;;;;;;;;;;5080606;28;19924;-68
2022/06/22 09:09:37;;;;;;;;;;;;;;;;;;5089984;28;19992;-68
2022/06/22 09:12:03;;;;;;;;;;;;;;;;;;5083296;28;19963;-68
2022/06/22 09:14:29;;;;;;;;;;;;;;;;;;5074945;28;19981;-69
2022/06/22 09:16:55;;;;;;;;;;;;;;;;;;5083634;28;19924;-68
2022/06/22 09:19:21;;;;;;;;;;;;;;;;;;5091466;28;20006;-68
2022/06/22 09:21:47;;;;;;;;;;;;;;;;;;5090672;28;20321;-68
2022/06/22 09:24:13;;;;;;;;;;;;;;;;;;5087668;28;19927;-69
2022/06/22 09:26:39;;;;;;;;;;;;;;;;;;5089652;28;20057;-68
2022/06/22 09:29:05;;;;;;;;;;;;;;;;;;5090587;28;19920;-69
2022/06/22 09:31:31;;;;;;;;;;;;;;;;;;5082637;28;19949;-68
2022/06/22 09:33:57;;;;;;;;;;;;;;;;;;5084942;28;19924;-68
2022/06/22 09:36:23;;;;;;;;;;;;;;;;;;5093706;28;20081;-68
2022/06/22 09:38:49;;;;;;;;;;;;;;;;;;5085843;28;19920;-69
2022/06/22 09:41:15;;;;;;;;;;;;;;;;;;5087391;28;19924;-68
2022/06/22 09:43:41;;;;;;;;;;;;;;;;;;5086050;28;19924;-68
2022/06/22 09:46:07;;;;;;;;;;;;;;;;;;5086471;28;20073;-68
2022/06/22 09:48:33;;;;;;;;;;;;;;;;;;5083686;28;20251;-69
2022/06/22 09:50:59;;;;;;;;;;;;;;;;;;5085881;28;19924;-69
2022/06/22 09:53:25;;;;;;;;;;;;;;;;;;5084003;28;19920;-68
2022/06/22 09:58:35;;;;;;;;;;;;;;;;;;5087928;28;20056;-68
2022/06/22 10:01:01;;;;;;;;;;;;;;;;;;5089640;28;20003;-68
2022/06/22 10:03:27;;;;;;;;;;;;;;;;;;5094851;28;20251;-68
2022/06/22 10:05:53;;;;;;;;;;;;;;;;;;5082897;28;19924;-68
2022/06/22 10:08:19;;;;;;;;;;;;;;;;;;5088131;28;20076;-68
2022/06/22 10:10:45;;;;;;;;;;;;;;;;;;5086906;28;19931;-68
2022/06/22 10:13:11;;;;;;;;;;;;;;;;;;5090520;28;19924;-67
2022/06/22 10:15:37;;;;;;;;;;;;;;;;;;5087049;28;20258;-68
2022/06/22 10:18:03;;;;;;;;;;;;;;;;;;5087848;28;19928;-68
2022/06/22 10:20:29;;;;;;;;;;;;;;;;;;5098415;28;19943;-68
2022/06/22 10:22:55;;;;;;;;;;;;;;;;;;5092900;28;19920;-68
2022/06/22 10:25:21;;;;;;;;;;;;;;;;;;5067174;28;20003;-68
2022/06/22 10:27:47;;;;;;;;;;;;;;;;;;5093469;28;20533;-68
2022/06/22 10:30:13;;;;;;;;;;;;;;;;;;5083313;28;19959;-68
2022/06/22 10:32:39;;;;;;;;;;;;;;;;;;5086473;28;19920;-68
2022/06/22 10:35:08;;;;;;;;;;;;;;;;;;5086096;28;19970;-70
2022/06/22 10:37:34;;;;;;;;;;;;;;;;;;5071254;28;19931;-68
2022/06/22 10:40:00;;;;;;;;;;;;;;;;;;5089626;28;19920;-68
2022/06/22 10:45:11;;;;;;;;;;;;;;;;;;5088170;28;20366;-68
2022/06/22 10:47:37;;;;;;;;;;;;;;;;;;5089315;28;19924;-68
2022/06/22 10:50:03;;;;;;;;;;;;;;;;;;5090593;28;20275;-67
2022/06/22 10:52:29;;;;;;;;;;;;;;;;;;5097108;28;19924;-68
2022/06/22 10:54:54;;;;;;;;;;;;;;;;;;5091272;28;20054;-67
2022/06/22 10:57:20;;;;;;;;;;;;;;;;;;5086854;28;19931;-68
2022/06/22 10:59:46;;;;;;;;;;;;;;;;;;5092158;28;19959;-68
2022/06/22 11:02:12;;;;;;;;;;;;;;;;;;5088383;28;19928;-68
2022/06/22 11:04:38;;;;;;;;;;;;;;;;;;5094703;28;19996;-68
2022/06/22 11:07:04;;;;;;;;;;;;;;;;;;5090828;28;20011;-68
2022/06/22 11:09:30;;;;;;;;;;;;;;;;;;5095847;28;19920;-68
2022/06/22 11:11:56;;;;;;;;;;;;;;;;;;5085075;28;19928;-68
2022/06/22 11:14:22;;;;;;;;;;;;;;;;;;5089821;28;19946;-68
2022/06/22 11:16:48;;;;;;;;;;;;;;;;;;5088459;28;19963;-68
2022/06/22 11:19:14;;;;;;;;;;;;;;;;;;5085913;28;19920;-68
2022/06/22 11:21:40;;;;;;;;;;;;;;;;;;5090708;28;20127;-68
2022/06/22 11:24:06;;;;;;;;;;;;;;;;;;5101862;28;19962;-68
2022/06/22 11:32:14;;;;;;;;;;;;;;;;;;5083998;28;20278;-68
2022/06/22 11:34:40;;;;;;;;;;;;;;;;;;5085012;28;20014;-68
2022/06/22 11:37:08;;;;;;;;;;;;;;;;;;5097585;28;19928;-69
2022/06/22 11:39:34;;;;;;;;;;;;;;;;;;5080751;28;19994;-68
2022/06/22 11:42:00;;;;;;;;;;;;;;;;;;5085666;28;20317;-69
2022/06/22 11:44:26;;;;;;;;;;;;;;;;;;5091557;28;19946;-68
2022/06/22 11:46:51;;;;;;;;;;;;;;;;;;5100391;28;19920;-68
2022/06/22 11:49:17;;;;;;;;;;;;;;;;;;5092406;28;19920;-68
2022/06/22 11:51:43;;;;;;;;;;;;;;;;;;5091122;28;19924;-68
2022/06/22 11:54:09;;;;;;;;;;;;;;;;;;5075647;28;19923;-68
2022/06/22 11:56:35;;;;;;;;;;;;;;;;;;5087603;28;19924;-68
2022/06/22 11:59:01;;;;;;;;;;;;;;;;;;5092395;28;19920;-68
2022/06/22 12:01:27;;;;;;;;;;;;;;;;;;5109923;28;20426;-68
2022/06/22 12:03:57;;;;;;;;;;;;;;;;;;5081082;28;19951;-68
2022/06/22 12:06:23;;;;;;;;;;;;;;;;;;5080164;28;20337;-69
2022/06/22 12:08:49;;;;;;;;;;;;;;;;;;5085813;28;19920;-68
2022/06/22 12:11:15;;;;;;;;;;;;;;;;;;5081545;28;19928;-69
2022/06/22 12:15:04;;;;;;;;;;;;;;;;;;5111175;28;19927;-69
2022/06/22 12:16:27;;;;;;;;;;;;;;;;;;5096443;28;19920;-69
2022/06/22 12:18:53;;;;;;;;;;;;;;;;;;5076441;28;19977;-69
2022/06/22 12:21:19;;;;;;;;;;;;;;;;;;5092190;28;20708;-69
2022/06/22 12:23:45;;;;;;;;;;;;;;;;;;5093226;28;19983;-69
2022/06/22 12:26:12;;;;;;;;;;;;;;;;;;5083596;28;19965;-69
2022/06/22 12:28:38;;;;;;;;;;;;;;;;;;5096356;28;20378;-70
2022/06/22 12:31:05;;;;;;;;;;;;;;;;;;5081000;28;19924;-69
2022/06/22 12:33:31;;;;;;;;;;;;;;;;;;5073426;28;19943;-69
2022/06/22 12:35:57;;;;;;;;;;;;;;;;;;5090588;28;20357;-70
2022/06/22 12:38:23;;;;;;;;;;;;;;;;;;5091161;28;20397;-70
2022/06/22 12:40:49;;;;;;;;;;;;;;;;;;5080217;28;20275;-70
2022/06/22 12:43:15;;;;;;;;;;;;;;;;;;5084438;28;19928;-69
2022/06/22 12:45:41;;;;;;;;;;;;;;;;;;5087503;28;19920;-69
2022/06/22 12:48:07;;;;;;;;;;;;;;;;;;5092239;28;19942;-69
2022/06/22 12:50:33;;;;;;;;;;;;;;;;;;5092554;28;19928;-69
2022/06/22 12:52:59;;;;;;;;;;;;;;;;;;5076577;28;19951;-69
2022/06/22 12:55:25;;;;;;;;;;;;;;;;;;5093001;28;19920;-69
2022/06/22 12:57:51;;;;;;;;;;;;;;;;;;5087743;28;19985;-69
2022/06/22 13:00:17;;;;;;;;;;;;;;;;;;5082879;28;19997;-69
2022/06/22 13:02:43;;;;;;;;;;;;;;;;;;5083779;28;19928;-69
2022/06/22 13:05:09;;;;;;;;;;;;;;;;;;5090157;28;20323;-69
2022/06/22 13:07:35;;;;;;;;;;;;;;;;;;5091066;28;19924;-69
2022/06/22 13:10:01;;;;;;;;;;;;;;;;;;5091723;28;19943;-69
2022/06/22 13:12:27;;;;;;;;;;;;;;;;;;5091851;28;20003;-69
2022/06/22 13:14:53;;;;;;;;;;;;;;;;;;5091138;28;20039;-69
2022/06/22 13:17:19;;;;;;;;;;;;;;;;;;5092085;28;19966;-69
2022/06/22 13:19:46;;;;;;;;;;;;;;;;;;5091893;28;19969;-69
2022/06/22 13:22:12;;;;;;;;;;;;;;;;;;5090970;28;19984;-68
2022/06/22 13:24:38;;;;;;;;;;;;;;;;;;5092027;28;20015;-70
2022/06/22 13:27:04;;;;;;;;;;;;;;;;;;5091748;28;20394;-69
2022/06/22 13:29:30;;;;;;;;;;;;;;;;;;5089696;28;19920;-69
2022/06/22 13:31:57;;;;;;;;;;;;;;;;;;5091830;28;19928;-69
2022/06/22 13:34:23;;;;;;;;;;;;;;;;;;5091294;28;20354;-69
2022/06/22 13:36:49;;;;;;;;;;;;;;;;;;5090528;28;19970;-69
2022/06/22 13:39:15;;;;;;;;;;;;;;;;;;5095899;28;19988;-69
2022/06/22 13:41:41;;;;;;;;;;;;;;;;;;5094375;28;19929;-69
2022/06/22 13:44:07;;;;;;;;;;;;;;;;;;5095390;28;19950;-69
2022/06/22 13:46:32;;;;;;;;;;;;;;;;;;5095449;28;20329;-69
2022/06/22 13:48:58;;;;;;;;;;;;;;;;;;5093777;28;19927;-69
2022/06/22 13:51:29;;;;;;;;;;;;;;;;;;5095187;28;19924;-69
2022/06/22 13:53:59;;;;;;;;;;;;;;;;;;5094723;28;19920;-69
2022/06/22 13:56:25;;;;;;;;;;;;;;;;;;5095445;28;19927;-69
2022/06/22 13:58:51;;;;;;;;;;;;;;;;;;5095451;28;19920;-69
2022/06/22 14:01:17;;;;;;;;;;;;;;;;;;5094705;28;19920;-69
2022/06/22 14:03:43;;;;;;;;;;;;;;;;;;5095019;28;19924;-69
2022/06/22 14:06:09;;;;;;;;;;;;;;;;;;5095084;28;20437;-69
2022/06/22 14:08:35;;;;;;;;;;;;;;;;;;5094780;28;19967;-69
2022/06/22 14:11:01;;;;;;;;;;;;;;;;;;5094963;28;19974;-69
2022/06/22 14:13:28;;;;;;;;;;;;;;;;;;5115689;28;19984;-69
2022/06/22 14:15:54;;;;;;;;;;;;;;;;;;5106481;28;20002;-70
2022/06/22 14:18:20;;;;;;;;;;;;;;;;;;5095210;28;20303;-70
2022/06/22 14:20:47;;;;;;;;;;;;;;;;;;5094764;28;19920;-70
2022/06/22 14:23:13;;;;;;;;;;;;;;;;;;5094108;28;19935;-70
2022/06/22 14:25:38;;;;;;;;;;;;;;;;;;5094552;28;20357;-70
2022/06/22 14:28:04;;;;;;;;;;;;;;;;;;5103441;28;19927;-70
2022/06/22 14:30:30;;;;;;;;;;;;;;;;;;5114239;28;19946;-70
2022/06/22 14:32:56;;;;;;;;;;;;;;;;;;5099050;28;19959;-70
2022/06/22 14:35:22;;;;;;;;;;;;;;;;;;5094201;28;19924;-70
2022/06/22 14:37:48;;;;;;;;;;;;;;;;;;5094241;28;19920;-70
2022/06/22 14:40:15;;;;;;;;;;;;;;;;;;5104189;28;20008;-70
2022/06/22 14:42:41;;;;;;;;;;;;;;;;;;5114968;28;19932;-70
2022/06/22 14:45:07;;;;;;;;;;;;;;;;;;5096708;28;19930;-70
2022/06/22 14:47:33;;;;;;;;;;;;;;;;;;5094402;28;19974;-70
2022/06/22 14:49:59;;;;;;;;;;;;;;;;;;5094366;28;19924;-70
2022/06/22 14:52:25;;;;;;;;;;;;;;;;;;5093833;28;19982;-70
2022/06/22 14:54:51;;;;;;;;;;;;;;;;;;5094586;28;19920;-70
2022/06/22 14:57:17;;;;;;;;;;;;;;;;;;5111715;28;20278;-70
2022/06/22 14:59:43;;;;;;;;;;;;;;;;;;5105467;28;19924;-70
2022/06/22 15:02:09;;;;;;;;;;;;;;;;;;5094563;28;19920;-70
2022/06/22 15:04:35;;;;;;;;;;;;;;;;;;5094047;28;19920;-70
2022/06/22 15:07:01;;;;;;;;;;;;;;;;;;5093451;28;19920;-70
2022/06/22 15:09:27;;;;;;;;;;;;;;;;;;5094279;28;19973;-70
2022/06/22 15:14:38;;;;;;;;;;;;;;;;;;5093675;28;20273;-70
2022/06/22 15:17:04;;;;;;;;;;;;;;;;;;5093480;28;19930;-70
2022/06/22 15:19:30;;;;;;;;;;;;;;;;;;5094121;28;19943;-70
2022/06/22 15:21:56;;;;;;;;;;;;;;;;;;5093303;28;19920;-70
2022/06/22 15:24:22;;;;;;;;;;;;;;;;;;5093900;28;19920;-70
2022/06/22 15:26:48;;;;;;;;;;;;;;;;;;5093345;28;19946;-70
2022/06/22 15:29:14;;;;;;;;;;;;;;;;;;5093157;28;19943;-70
2022/06/22 15:31:40;;;;;;;;;;;;;;;;;;5093060;28;20006;-70
2022/06/22 15:34:05;;;;;;;;;;;;;;;;;;5092333;28;19970;-70
2022/06/22 15:36:31;;;;;;;;;;;;;;;;;;5093216;28;19969;-70
2022/06/22 15:38:57;;;;;;;;;;;;;;;;;;5089490;28;19960;-70
2022/06/22 15:41:23;;;;;;;;;;;;;;;;;;5092587;28;19996;-70
2022/06/22 15:43:49;;;;;;;;;;;;;;;;;;5090667;28;19935;-70
2022/06/22 15:46:15;;;;;;;;;;;;;;;;;;5092818;28;19974;-70
2022/06/22 15:48:41;;;;;;;;;;;;;;;;;;5093809;28;20307;-70
2022/06/22 15:51:07;;;;;;;;;;;;;;;;;;5092646;28;19928;-70
2022/06/22 15:53:33;;;;;;;;;;;;;;;;;;5093253;28;19946;-70
2022/06/22 15:55:59;;;;;;;;;;;;;;;;;;5093040;28;19955;-70
2022/06/22 15:58:25;;;;;;;;;;;;;;;;;;5092731;28;19920;-70
2022/06/22 16:00:51;;;;;;;;;;;;;;;;;;5092906;28;19997;-70
2022/06/22 16:03:17;;;;;;;;;;;;;;;;;;5093611;28;19924;-70
2022/06/22 16:05:43;;;;;;;;;;;;;;;;;;5092679;28;19924;-70
2022/06/22 16:08:09;;;;;;;;;;;;;;;;;;5093346;28;20304;-70
2022/06/22 16:10:35;;;;;;;;;;;;;;;;;;5092844;28;19927;-70
2022/06/22 16:15:45;;;;;;;;;;;;;;;;;;5093145;28;20279;-70
2022/06/22 16:18:12;;;;;;;;;;;;;;;;;;5092793;28;19976;-70
2022/06/22 16:20:40;;;;;;;;;;;;;;;;;;5092265;28;19924;-70
2022/06/22 16:23:06;;;;;;;;;;;;;;;;;;5093261;28;19958;-70
2022/06/22 16:25:32;;;;;;;;;;;;;;;;;;5093268;28;19963;-71
2022/06/22 16:27:58;;;;;;;;;;;;;;;;;;5092603;28;19931;-70
2022/06/22 16:30:24;;;;;;;;;;;;;;;;;;5093035;28;19920;-70
2022/06/22 16:32:50;;;;;;;;;;;;;;;;;;5093267;28;19925;-70
2022/06/22 16:35:16;;;;;;;;;;;;;;;;;;5092345;28;19920;-70
2022/06/22 16:37:42;;;;;;;;;;;;;;;;;;5092704;28;20002;-70
2022/06/22 16:40:08;;;;;;;;;;;;;;;;;;5092362;28;19924;-70
2022/06/22 16:42:34;;;;;;;;;;;;;;;;;;5091956;28;20062;-70
2022/06/22 16:45:00;;;;;;;;;;;;;;;;;;5092813;28;19920;-70
2022/06/22 16:47:26;;;;;;;;;;;;;;;;;;5092692;28;19920;-70
2022/06/22 16:49:52;;;;;;;;;;;;;;;;;;5091871;28;19924;-71
2022/06/22 16:52:18;;;;;;;;;;;;;;;;;;5092038;28;20014;-71
2022/06/22 16:54:44;;;;;;;;;;;;;;;;;;5092667;28;20522;-71
2022/06/22 16:57:10;;;;;;;;;;;;;;;;;;5091871;28;19923;-71
2022/06/22 16:59:36;;;;;;;;;;;;;;;;;;5092563;28;20003;-71
2022/06/22 17:02:02;;;;;;;;;;;;;;;;;;5090942;28;20038;-69